CST,Max TemperatureF,Mean TemperatureF,Min TemperatureF,Max Dew PointF,MeanDew PointF,Min DewpointF,Max Humidity, Mean Humidity, Min Humidity, Max Sea Level PressureIn, Mean Sea Level PressureIn, Min Sea Level PressureIn, Max VisibilityMiles, Mean VisibilityMiles, Min VisibilityMiles, Max Wind SpeedMPH, Mean Wind SpeedMPH, Max Gust SpeedMPH,PrecipitationIn, CloudCover, Events, WindDirDegrees
2012-2-1,66,62,59,65,62,57,100,96,90,30.19,30.14,30.07,10,5,0,13,5,17,1.32,6,Fog-Rain-Thunderstorm,214
2012-2-2,69,64,60,63,62,60,100,94,81,30.20,30.15,30.11,10,5,0,7,2,,0.01,7,Fog-Rain,108
2012-2-3,71,66,62,64,62,61,100,88,73,30.17,30.13,30.09,10,8,2,14,6,21,0.11,8,Rain,137
2012-2-4,72,64,57,66,62,57,100,93,78,30.12,30.09,30.03,10,7,0,22,7,28,0.27,7,Fog-Rain-Thunderstorm,174
2012-2-5,61,54,48,59,50,40,96,85,69,30.23,30.17,30.09,10,10,5,14,7,20,0.01,7,,349
2012-2-6,61,52,42,44,40,38,89,68,42,30.27,30.20,30.16,10,10,10,10,6,17,0.00,1,,2
2012-2-7,66,55,44,46,42,39,86,65,36,30.23,30.18,30.13,10,10,10,8,5,,0.00,2,,11
2012-2-8,62,54,46,43,38,35,76,58,38,30.33,30.28,30.23,10,10,10,10,8,20,0.00,1,,352
2012-2-9,55,47,39,41,36,32,83,66,45,30.34,30.27,30.19,10,10,2,10,6,17,0.00,0,,20
2012-2-10,53,48,43,49,46,40,100,94,77,30.17,30.09,30.04,10,6,2,8,2,,0.31,7,Rain,333
2012-2-11,46,37,28,46,30,14,100,70,31,30.53,30.29,30.14,10,10,7,21,12,30,0.01,4,,344
2012-2-12,46,36,26,22,14,5,66,45,18,30.60,30.47,30.35,10,10,10,12,6,16,0.00,0,,6
2012-2-13,54,44,33,52,39,18,100,78,43,30.33,30.07,29.91,10,7,2,13,3,20,0.43,7,Rain,139
2012-2-14,66,56,46,54,50,45,100,90,47,30.06,29.96,29.89,10,7,0,8,3,,0.00,4,Fog,329
2012-2-15,69,58,46,63,56,46,100,94,63,30.13,30.05,29.95,10,6,1,23,5,31,1.38,6,Rain-Thunderstorm,158
2012-2-16,66,60,54,63,59,50,100,88,65,30.15,30.08,29.99,10,9,2,10,6,,0.40,6,Rain-Thunderstorm,353
2012-2-17,70,60,50,51,49,47,93,71,47,30.14,30.07,30.00,10,10,10,8,5,,0.00,1,,36
2012-2-18,55,54,53,55,53,48,100,96,77,29.99,29.83,29.73,10,5,0,28,7,33,2.45,8,Fog-Rain-Thunderstorm,35
2012-2-19,54,46,39,54,45,38,100,88,64,30.14,29.94,29.74,10,9,3,22,7,29,0.06,7,Rain,321
2012-2-20,62,48,33,46,38,32,100,69,36,30.22,30.16,30.11,10,10,7,10,3,,0.00,2,,163
2012-2-21,73,60,46,56,51,45,97,79,49,30.20,30.13,30.03,10,10,7,10,4,,0.00,3,,199
2012-2-22,75,64,53,63,59,54,100,90,62,30.02,29.88,29.69,10,5,0,16,5,29,0.00,5,Fog,210
2012-2-23,78,68,59,66,63,59,100,87,60,29.74,29.67,29.58,10,7,1,23,9,34,0.01,5,,200
2012-2-24,70,56,42,68,41,13,94,57,19,30.30,29.97,29.69,10,9,6,29,10,37,0.00,5,,317
2012-2-25,57,48,39,40,28,14,80,50,18,30.40,30.32,30.28,10,10,10,13,4,18,0.00,0,,6
2012-2-26,59,48,37,49,41,34,93,66,47,30.32,30.25,30.20,10,10,9,9,4,,0.00,7,,132
2012-2-27,64,58,52,57,53,47,90,82,73,30.33,30.27,30.24,10,10,6,8,4,,0.01,8,Rain,63
2012-2-28,73,66,59,68,63,57,100,95,78,30.26,30.18,30.11,10,5,0,16,5,20,0.27,7,Fog-Rain-Thunderstorm,161
2012-2-29,78,72,66,67,65,62,100,83,60,30.11,30.03,29.96,10,9,7,14,9,23,0.00,5,Rain,201